Time;durP1;ratioP1;P1;durP2;ratioP2;P2;SDS_P1;SDS_P2;PMS_P1;PMS_P2;Temp;Humidity;BMP_temperature;BMP_pressure;BME280_temperature;BME280_humidity;BME280_pressure;Samples;Min_cycle;Max_cycle;Signal;HPM_P1;HPM_P2
2022/03/21 00:00:38;;;;;;;40.90;29.08;;;;;;;5.65;64.55;102856.19;5033113;28;20447;-46
2022/03/21 00:03:08;;;;;;;36.30;28.63;;;;;;;5.62;64.66;102856.53;5045720;28;20037;-49
2022/03/21 00:05:36;;;;;;;36.83;28.48;;;;;;;5.62;64.74;102861.13;5052609;28;20040;-47
2022/03/21 00:08:04;;;;;;;38.10;28.85;;;;;;;5.59;64.37;102856.09;5032533;28;20045;-49
2022/03/21 00:10:35;;;;;;;37.63;28.02;;;;;;;5.56;64.66;102854.59;5033451;28;20045;-50
2022/03/21 00:13:04;;;;;;;34.08;28.48;;;;;;;5.55;64.86;102855.59;5051916;28;20036;-47
2022/03/21 00:15:32;;;;;;;36.22;28.50;;;;;;;5.54;64.77;102860.16;5051868;28;20083;-48
2022/03/21 00:18:03;;;;;;;33.40;28.48;;;;;;;5.53;64.74;102860.34;5038215;28;20116;-49
2022/03/21 00:20:32;;;;;;;35.20;29.05;;;;;;;5.49;64.73;102861.75;5016111;28;20053;-48
2022/03/21 00:23:00;;;;;;;40.05;28.85;;;;;;;5.43;65.09;102857.91;5034074;28;20415;-49
2022/03/21 00:25:28;;;;;;;37.28;29.52;;;;;;;5.46;65.04;102864.81;5032037;28;20048;-48
2022/03/21 00:27:56;;;;;;;39.00;27.77;;;;;;;5.48;65.11;102869.03;5033027;28;20049;-47
2022/03/21 00:30:25;;;;;;;36.85;29.10;;;;;;;5.49;64.88;102873.41;5048284;28;20083;-49
2022/03/21 00:32:53;;;;;;;36.97;28.00;;;;;;;5.44;64.83;102875.81;5051499;28;20491;-49
2022/03/21 00:35:23;;;;;;;37.08;28.38;;;;;;;5.41;64.59;102869.94;5052884;28;20678;-48
2022/03/21 00:37:51;;;;;;;35.78;28.92;;;;;;;5.34;64.78;102875.25;5034929;28;20051;-48
2022/03/21 00:40:19;;;;;;;35.65;28.77;;;;;;;5.30;64.97;102873.91;5031674;28;20045;-48
2022/03/21 00:42:49;;;;;;;35.10;28.30;;;;;;;5.26;65.39;102883.41;5047194;28;20106;-47
2022/03/21 00:45:26;;;;;;;36.30;29.00;;;;;;;5.25;65.03;102881.75;5053014;28;20403;-53
2022/03/21 00:47:55;;;;;;;35.78;28.80;;;;;;;5.23;65.06;102881.06;5057156;28;20037;-49
2022/03/21 00:50:25;;;;;;;38.25;29.17;;;;;;;5.16;65.28;102880.94;5039754;28;20488;-49
2022/03/21 00:52:55;;;;;;;35.40;28.75;;;;;;;5.13;65.82;102879.44;5035533;28;20099;-49
2022/03/21 00:55:31;;;;;;;37.35;29.42;;;;;;;5.15;65.47;102883.81;5035768;28;20056;-49
2022/03/21 00:57:59;;;;;;;34.08;29.52;;;;;;;5.15;64.78;102886.53;5037004;28;20481;-50
2022/03/21 01:00:29;;;;;;;35.28;28.98;;;;;;;5.11;64.89;102881.50;5036656;28;20489;-47
2022/03/21 01:02:58;;;;;;;35.97;29.13;;;;;;;5.08;65.32;102884.56;5049760;28;20135;-51
2022/03/21 01:05:26;;;;;;;35.40;28.35;;;;;;;5.13;65.12;102890.25;5056874;28;20400;-49
2022/03/21 01:07:54;;;;;;;34.95;29.27;;;;;;;5.16;64.73;102888.22;5055332;28;20037;-48
2022/03/21 01:10:23;;;;;;;40.30;29.83;;;;;;;5.14;64.54;102893.81;5053359;28;20045;-48
2022/03/21 01:12:51;;;;;;;38.75;29.90;;;;;;;5.11;64.45;102896.88;5036693;28;20053;-47
2022/03/21 01:15:20;;;;;;;38.90;30.50;;;;;;;5.05;64.92;102901.16;5047465;28;20044;-48
2022/03/21 01:17:48;;;;;;;34.45;27.58;;;;;;;5.05;64.58;102894.88;5056542;28;20037;-50
2022/03/21 01:20:19;;;;;;;36.13;28.42;;;;;;;5.05;65.16;102893.03;5038891;28;20041;-48
2022/03/21 01:22:47;;;;;;;37.15;28.98;;;;;;;5.07;65.01;102901.78;5053542;28;20048;-47
2022/03/21 01:25:15;;;;;;;37.08;29.55;;;;;;;5.06;64.25;102904.69;5056465;28;20368;-48
2022/03/21 01:27:42;;;;;;;40.78;29.77;;;;;;;4.95;64.90;102910.50;5054921;28;20381;-44
2022/03/21 01:30:12;;;;;;;38.67;30.00;;;;;;;4.84;65.07;102906.34;5039301;28;20057;-49
2022/03/21 01:32:43;;;;;;;39.17;29.95;;;;;;;4.75;65.21;102902.84;5054641;28;20056;-48
2022/03/21 01:35:16;;;;;;;38.78;29.75;;;;;;;4.78;65.10;102904.34;5036531;28;20060;-48
2022/03/21 01:37:46;;;;;;;36.22;29.02;;;;;;;4.77;65.26;102905.38;5036234;28;20076;-44
2022/03/21 01:40:15;;;;;;;37.72;28.50;;;;;;;4.74;65.28;102911.97;5034906;28;20134;-45
2022/03/21 01:42:46;;;;;;;35.38;30.08;;;;;;;4.75;65.21;102913.66;5055375;28;20098;-44
2022/03/21 01:45:16;;;;;;;35.67;29.17;;;;;;;4.73;65.40;102904.88;5055018;28;20140;-44
2022/03/21 01:47:44;;;;;;;35.42;28.77;;;;;;;4.70;65.65;102907.94;5038740;28;20492;-46
2022/03/21 01:50:13;;;;;;;36.67;28.77;;;;;;;4.68;65.20;102904.56;5039797;28;20025;-44
2022/03/21 01:52:45;;;;;;;34.83;28.52;;;;;;;4.67;65.27;102903.75;5037514;28;20044;-47
2022/03/21 01:58:01;;;;;;;36.33;29.10;;;;;;;4.71;65.78;102912.31;5036135;28;20045;-44
2022/03/21 02:00:29;;;;;;;38.05;29.73;;;;;;;4.69;65.46;102908.97;5037177;28;20041;-43
2022/03/21 02:03:01;;;;;;;36.58;28.67;;;;;;;4.69;65.70;102909.81;5035662;28;20053;-43
2022/03/21 02:05:33;;;;;;;36.50;28.40;;;;;;;4.74;65.21;102911.13;5035459;28;20493;-46
2022/03/21 02:08:01;;;;;;;35.03;29.33;;;;;;;4.66;64.90;102904.75;5034591;28;20053;-48
2022/03/21 02:10:29;;;;;;;35.25;28.48;;;;;;;4.54;65.28;102916.97;5035725;28;20511;-49
2022/03/21 02:12:57;;;;;;;35.90;29.20;;;;;;;4.40;65.22;102913.16;5038475;28;20052;-49
2022/03/21 02:15:25;;;;;;;36.88;29.25;;;;;;;4.29;65.86;102918.09;5054085;28;20045;-48
2022/03/21 02:18:00;;;;;;;37.15;29.05;;;;;;;4.20;65.53;102915.41;5055446;28;20487;-48
2022/03/21 02:20:29;;;;;;;34.85;29.20;;;;;;;4.19;66.69;102912.91;5053458;28;20033;-50
2022/03/21 02:23:34;;;;;;;36.15;28.83;;;;;;;4.24;66.70;102916.75;5052926;28;20073;-44
2022/03/21 02:26:02;;;;;;;35.40;29.83;;;;;;;4.24;66.86;102905.13;5036327;28;20072;-49
2022/03/21 02:28:31;;;;;;;35.45;29.17;;;;;;;4.28;66.20;102906.44;5033890;28;20038;-48
2022/03/21 02:30:59;;;;;;;34.53;28.98;;;;;;;4.22;66.46;102908.00;5033873;28;20034;-50
2022/03/21 02:33:27;;;;;;;33.85;27.73;;;;;;;4.24;66.51;102910.53;5034050;28;20045;-48
2022/03/21 02:35:56;;;;;;;34.25;27.92;;;;;;;4.31;66.72;102916.91;5034121;28;20121;-48
2022/03/21 02:38:25;;;;;;;35.30;29.50;;;;;;;4.40;66.47;102909.59;5034513;28;20451;-48
2022/03/21 02:40:53;;;;;;;32.70;27.35;;;;;;;4.46;66.72;102908.91;5035388;28;20092;-48
2022/03/21 02:43:21;;;;;;;34.67;27.35;;;;;;;4.48;66.41;102912.28;5036559;28;20045;-48
2022/03/21 02:45:48;;;;;;;35.97;28.58;;;;;;;4.45;66.29;102913.47;5050951;28;20048;-47
2022/03/21 02:48:18;;;;;;;36.58;29.15;;;;;;;4.44;66.81;102916.34;5055291;28;20045;-47
2022/03/21 02:51:00;;;;;;;35.17;28.23;;;;;;;4.46;66.91;102908.91;5036722;28;20033;-50
2022/03/21 02:53:30;;;;;;;37.95;28.92;;;;;;;4.46;66.88;102908.91;5034618;28;20051;-43
2022/03/21 02:55:58;;;;;;;36.08;28.63;;;;;;;4.45;67.36;102912.63;5049949;28;20049;-44
2022/03/21 02:58:25;;;;;;;37.92;29.67;;;;;;;4.47;67.61;102910.56;5054309;28;20395;-44
2022/03/21 03:00:53;;;;;;;36.95;28.85;;;;;;;4.47;67.37;102915.97;5051590;28;20044;-45
2022/03/21 03:03:21;;;;;;;32.85;28.23;;;;;;;4.51;67.97;102919.19;5034749;28;20128;-44
2022/03/21 03:05:49;;;;;;;38.15;28.70;;;;;;;4.49;67.44;102908.56;5034236;28;20124;-49
2022/03/21 03:08:16;;;;;;;38.80;29.77;;;;;;;4.46;67.96;102914.31;5046828;28;20052;-45
2022/03/21 03:10:44;;;;;;;36.63;29.58;;;;;;;4.40;67.37;102909.59;5035120;28;20045;-46
2022/03/21 03:13:11;;;;;;;39.63;29.33;;;;;;;4.28;67.44;102911.84;5034774;28;20120;-46
2022/03/21 03:15:39;;;;;;;36.80;29.17;;;;;;;4.19;67.65;102924.53;5033213;28;20048;-46
2022/03/21 03:18:07;;;;;;;33.22;28.05;;;;;;;4.17;67.81;102913.06;5033233;28;20469;-47
2022/03/21 03:20:35;;;;;;;35.38;28.30;;;;;;;4.16;67.77;102907.84;5035056;28;20041;-47
2022/03/21 03:23:03;;;;;;;32.80;28.42;;;;;;;4.16;68.25;102914.09;5043218;28;20571;-44
2022/03/21 03:25:31;;;;;;;35.22;28.30;;;;;;;4.14;68.54;102910.72;5054168;28;20461;-46
2022/03/21 03:27:58;;;;;;;33.13;28.45;;;;;;;4.12;68.63;102912.75;5053854;28;20045;-48
2022/03/21 03:30:26;;;;;;;35.72;29.30;;;;;;;4.14;68.98;102915.28;5033932;28;20044;-47
2022/03/21 03:32:53;;;;;;;39.63;28.50;;;;;;;4.12;68.43;102907.34;5036068;28;20491;-43
2022/03/21 03:35:21;;;;;;;35.38;27.77;;;;;;;4.11;69.14;102905.66;5053982;28;20059;-43
2022/03/21 03:37:49;;;;;;;31.70;27.02;;;;;;;4.11;69.22;102915.63;5053598;28;20045;-44
2022/03/21 03:40:17;;;;;;;36.58;27.70;;;;;;;4.14;69.26;102918.00;5048121;28;20076;-45
2022/03/21 03:42:46;;;;;;;34.17;27.65;;;;;;;4.14;69.93;102921.53;5052560;28;20407;-49
2022/03/21 03:45:13;;;;;;;37.13;27.70;;;;;;;4.17;69.37;102917.63;5053742;28;20546;-48
2022/03/21 03:47:42;;;;;;;36.47;27.83;;;;;;;4.19;69.71;102916.44;5053646;28;20045;-48
2022/03/21 03:50:10;;;;;;;34.65;26.83;;;;;;;4.23;69.08;102920.47;5034724;28;20396;-47
2022/03/21 03:52:38;;;;;;;34.75;27.25;;;;;;;4.24;68.80;102927.53;5038357;28;20040;-45
2022/03/21 03:55:06;;;;;;;34.35;27.45;;;;;;;4.23;69.40;102915.09;5044378;28;20045;-48
2022/03/21 03:57:34;;;;;;;36.72;26.50;;;;;;;4.25;69.44;102921.13;5015971;28;20054;-51
2022/03/21 04:00:02;;;;;;;35.85;26.98;;;;;;;4.23;70.43;102925.88;5046784;28;20049;-47
2022/03/21 04:05:26;;;;;;;31.70;26.65;;;;;;;4.24;69.87;102927.53;5052501;28;20442;-47
2022/03/21 04:07:54;;;;;;;32.72;25.83;;;;;;;4.19;69.76;102929.94;5051368;28;20463;-47
2022/03/21 04:10:22;;;;;;;33.30;26.40;;;;;;;4.14;70.17;102926.91;5033502;28;20045;-48
2022/03/21 04:12:50;;;;;;;34.22;26.23;;;;;;;4.14;69.90;102929.63;5047532;28;20505;-46
2022/03/21 04:15:19;;;;;;;32.25;26.45;;;;;;;4.13;70.49;102929.78;5053043;28;20045;-47
2022/03/21 04:17:47;;;;;;;33.55;25.38;;;;;;;4.11;70.46;102927.22;5053758;28;20041;-48
2022/03/21 04:20:15;;;;;;;35.53;25.90;;;;;;;4.08;70.50;102922.19;5050125;28;20500;-48
2022/03/21 04:22:42;;;;;;;33.05;25.10;;;;;;;4.09;71.11;102926.59;5042413;28;20049;-48
2022/03/21 04:25:10;;;;;;;30.85;25.13;;;;;;;4.10;71.58;102925.56;5033072;28;20452;-52
2022/03/21 04:27:38;;;;;;;34.60;26.35;;;;;;;4.06;71.82;102929.63;5033442;28;20042;-47
2022/03/21 04:30:07;;;;;;;31.70;25.02;;;;;;;4.04;71.45;102921.72;5053162;28;20059;-49
2022/03/21 04:32:34;;;;;;;33.55;26.00;;;;;;;4.02;71.99;102923.75;5047788;28;20052;-50
2022/03/21 04:35:03;;;;;;;32.47;24.77;;;;;;;3.99;72.45;102929.50;5032120;28;20134;-49
2022/03/21 04:37:31;;;;;;;34.28;25.70;;;;;;;3.98;73.04;102933.19;5032001;28;20056;-51
2022/03/21 04:39:58;;;;;;;34.47;25.55;;;;;;;3.99;72.78;102934.00;5048698;28;20057;-49
2022/03/21 04:42:26;;;;;;;32.97;24.80;;;;;;;4.01;72.57;102932.00;5053263;28;20376;-48
2022/03/21 04:44:54;;;;;;;30.90;24.77;;;;;;;4.03;73.27;102929.97;5047378;28;20045;-49
2022/03/21 04:47:21;;;;;;;31.45;24.42;;;;;;;4.05;73.26;102933.34;5051679;28;20075;-48
2022/03/21 04:49:49;;;;;;;34.78;25.25;;;;;;;4.05;72.92;102934.19;5032947;28;20060;-48
2022/03/21 04:52:17;;;;;;;31.98;26.17;;;;;;;4.05;73.33;102944.13;5015903;28;20080;-47
2022/03/21 04:54:44;;;;;;;30.52;24.40;;;;;;;4.00;73.29;102938.41;5041016;28;20052;-50
2022/03/21 04:57:12;;;;;;;30.52;24.42;;;;;;;3.97;73.90;102927.94;5033612;28;20048;-47
2022/03/21 04:59:40;;;;;;;30.92;24.02;;;;;;;4.00;74.29;102935.72;5033726;28;20116;-49
2022/03/21 05:02:07;;;;;;;31.98;24.38;;;;;;;4.01;74.12;102935.53;5032522;28;20041;-49
2022/03/21 05:04:35;;;;;;;30.77;23.52;;;;;;;4.00;73.63;102941.13;5040773;28;20075;-48
2022/03/21 05:07:06;;;;;;;39.08;23.85;;;;;;;4.00;73.78;102946.50;5052127;28;20045;-47
2022/03/21 05:09:33;;;;;;;30.20;22.98;;;;;;;3.99;74.18;102939.41;5032682;28;20412;-48
2022/03/21 05:12:01;;;;;;;31.88;23.05;;;;;;;3.99;74.51;102950.19;5033131;28;20476;-49
2022/03/21 05:14:28;;;;;;;30.30;24.08;;;;;;;3.98;74.32;102948.53;5032574;28;20431;-48
2022/03/21 05:16:56;;;;;;;32.55;23.90;;;;;;;3.98;75.01;102949.38;5032707;28;20080;-48
2022/03/21 05:19:23;;;;;;;32.70;23.23;;;;;;;3.97;74.72;102952.22;5032558;28;20128;-52
2022/03/21 05:21:51;;;;;;;30.77;22.20;;;;;;;3.94;74.93;102950.72;5032543;28;20496;-52
2022/03/21 05:32:37;;;;;;;29.33;22.48;;;;;;;3.88;75.84;102954.09;5034540;28;19921;-44
2022/03/21 05:37:52;;;;;;;31.58;21.98;;;;;;;3.94;76.54;102953.41;5054416;28;20041;-49
2022/03/21 05:40:32;;;;;;;26.95;21.38;;;;;;;3.96;76.61;102950.56;5054368;28;20049;-48
2022/03/21 05:43:00;;;;;;;29.95;21.65;;;;;;;3.95;77.62;102957.81;5055212;28;20389;-47
2022/03/21 05:45:28;;;;;;;28.45;20.40;;;;;;;4.00;77.70;102951.91;5054738;28;20480;-48
2022/03/21 05:50:43;;;;;;;30.13;21.15;;;;;;;4.06;77.20;102953.88;5055792;28;20037;-50
2022/03/21 05:53:11;;;;;;;31.33;21.02;;;;;;;4.07;77.57;102947.50;5046602;28;20049;-50
2022/03/21 05:55:38;;;;;;;27.88;20.30;;;;;;;3.97;78.53;102946.81;5049361;28;20041;-51
2022/03/21 05:58:06;;;;;;;30.33;20.48;;;;;;;3.94;78.87;102952.56;5045754;28;20443;-48
2022/03/21 06:00:35;;;;;;;28.35;20.67;;;;;;;3.86;79.16;102953.44;5034622;28;20042;-48
2022/03/21 06:03:03;;;;;;;28.40;21.58;;;;;;;3.81;79.51;102962.03;5035242;28;20045;-47
2022/03/21 06:05:31;;;;;;;27.33;20.67;;;;;;;3.76;80.49;102956.31;5034513;28;20528;-51
2022/03/21 06:07:59;;;;;;;30.60;22.02;;;;;;;3.75;80.76;102965.44;5050375;28;20033;-49
2022/03/21 06:10:27;;;;;;;28.35;21.55;;;;;;;3.73;80.67;102956.66;5055140;28;20080;-50
2022/03/21 06:12:55;;;;;;;30.35;21.38;;;;;;;3.73;81.43;102962.06;5028585;28;20044;-48
2022/03/21 06:15:26;;;;;;;32.00;21.10;;;;;;;3.72;81.16;102965.75;5035496;28;20124;-50
2022/03/21 06:17:58;;;;;;;31.65;20.65;;;;;;;3.69;82.03;102967.94;5036401;28;20063;-47
2022/03/21 06:20:27;;;;;;;29.83;20.77;;;;;;;3.68;81.62;102969.81;5035389;28;20048;-48
2022/03/21 06:22:55;;;;;;;28.52;20.90;;;;;;;3.69;82.55;102968.78;5035531;28;20512;-51
2022/03/21 06:25:22;;;;;;;27.95;19.92;;;;;;;3.67;82.30;102968.09;5017082;28;20053;-45
2022/03/21 06:27:50;;;;;;;27.83;20.77;;;;;;;3.66;83.12;102976.38;4338866;28;10000725;-52
2022/03/21 06:30:18;;;;;;;29.08;20.98;;;;;;;3.68;82.78;102980.59;5031745;28;20108;-51
2022/03/21 06:32:45;;;;;;;33.78;21.63;;;;;;;3.71;83.99;102979.41;5040562;28;20064;-50
2022/03/21 06:35:13;;;;;;;28.27;20.33;;;;;;;3.76;83.63;102979.75;5051726;28;20052;-49
2022/03/21 06:37:41;;;;;;;31.88;20.85;;;;;;;3.83;83.56;102978.06;5039013;28;20045;-49
2022/03/21 06:40:10;;;;;;;28.15;20.58;;;;;;;3.96;83.56;102982.91;5030031;28;20152;-48
2022/03/21 06:42:38;;;;;;;29.00;19.35;;;;;;;4.05;83.98;102981.91;5031974;28;20041;-48
2022/03/21 06:45:06;;;;;;;30.58;19.92;;;;;;;4.09;83.65;102988.66;5041038;28;20057;-47
2022/03/21 06:47:33;;;;;;;30.40;20.15;;;;;;;4.13;83.82;102989.97;5035431;28;20396;-46
2022/03/21 06:50:01;;;;;;;33.58;19.58;;;;;;;4.16;84.22;103000.44;5031504;28;20045;-51
2022/03/21 06:52:29;;;;;;;31.33;19.52;;;;;;;4.22;84.29;103004.28;5040312;28;20128;-49
2022/03/21 06:54:56;;;;;;;30.80;19.58;;;;;;;4.25;84.37;103007.47;5051338;28;20041;-50
2022/03/21 06:57:24;;;;;;;30.55;18.15;;;;;;;4.30;85.23;103006.13;5040075;28;20040;-48
2022/03/21 06:59:51;;;;;;;30.95;17.98;;;;;;;4.36;84.92;103008.16;5030118;28;20131;-48
2022/03/21 07:02:19;;;;;;;33.85;19.27;;;;;;;4.40;85.14;103012.16;5029196;28;20484;-49
2022/03/21 07:04:47;;;;;;;29.05;19.80;;;;;;;4.41;85.48;103014.69;5031923;28;20041;-49
2022/03/21 07:07:15;;;;;;;31.35;19.58;;;;;;;4.44;86.54;103016.22;5032992;28;20052;-50
2022/03/21 07:09:42;;;;;;;29.55;18.65;;;;;;;4.49;86.40;103021.91;5047779;28;20041;-48
2022/03/21 07:12:10;;;;;;;27.45;17.30;;;;;;;4.55;86.66;103010.44;5053135;28;20399;-48
2022/03/21 07:14:38;;;;;;;25.33;17.08;;;;;;;4.61;86.53;103019.69;5052705;28;20045;-50
2022/03/21 07:17:06;;;;;;;27.73;17.42;;;;;;;4.67;87.01;103013.63;5052056;28;20037;-49
2022/03/21 07:19:34;;;;;;;32.05;17.88;;;;;;;4.72;86.68;103015.78;5052659;28;20090;-50
2022/03/21 07:22:02;;;;;;;28.73;17.33;;;;;;;4.76;86.87;103012.53;5052313;28;20064;-50
2022/03/21 07:24:29;;;;;;;26.00;16.48;;;;;;;4.80;87.54;103018.44;5054099;28;20045;-47
2022/03/21 07:26:57;;;;;;;29.40;17.25;;;;;;;4.82;88.71;103006.44;5053103;28;20052;-52
2022/03/21 07:29:25;;;;;;;29.52;16.15;;;;;;;4.85;89.31;103021.47;5053946;28;20041;-52
2022/03/21 07:31:53;;;;;;;25.75;16.35;;;;;;;4.89;89.50;103017.41;5053324;28;20127;-49
2022/03/21 07:34:20;;;;;;;31.20;16.67;;;;;;;4.94;89.93;103015.00;5046847;28;20100;-51
2022/03/21 07:36:50;;;;;;;24.27;15.43;;;;;;;4.99;89.71;103023.41;5043930;28;20120;-51
2022/03/21 07:39:17;;;;;;;26.85;16.00;;;;;;;5.04;90.41;103007.53;5053996;28;20037;-50
2022/03/21 07:41:46;;;;;;;23.25;14.90;;;;;;;5.09;91.45;103013.22;5053969;28;20172;-51
2022/03/21 07:47:17;;;;;;;24.60;15.43;;;;;;;5.14;91.25;103015.41;5052124;28;20051;-50
2022/03/21 07:47:20;;;;;;;24.77;14.57;;;;;;;5.24;90.84;103018.75;5046851;28;20041;-50
2022/03/21 07:49:52;;;;;;;26.90;15.15;;;;;;;5.31;90.51;103016.97;5034974;28;20159;-48
2022/03/21 07:52:21;;;;;;;23.10;14.13;;;;;;;5.36;90.18;103018.31;5032220;28;20053;-49
2022/03/21 07:54:53;;;;;;;22.20;14.23;;;;;;;5.40;89.51;103019.66;5031929;28;20050;-50
2022/03/21 07:57:23;;;;;;;24.50;14.25;;;;;;;5.42;88.72;103018.44;5033488;28;20052;-49
2022/03/21 07:59:51;;;;;;;21.60;14.45;;;;;;;5.45;88.44;103028.88;5049388;28;20708;-50
2022/03/21 08:02:21;;;;;;;26.13;14.43;;;;;;;5.48;88.15;103016.88;5051170;28;20037;-55
2022/03/21 08:04:50;;;;;;;25.10;14.20;;;;;;;5.54;88.26;103026.97;5053026;28;20087;-47
2022/03/21 08:07:25;;;;;;;25.48;14.73;;;;;;;5.64;88.10;103032.16;5053514;28;20052;-51
2022/03/21 08:09:53;;;;;;;25.42;13.95;;;;;;;5.69;87.56;103037.84;5037682;28;20048;-52
2022/03/21 08:12:20;;;;;;;26.90;14.40;;;;;;;5.73;87.42;103031.06;5051331;28;20041;-47
2022/03/21 08:14:48;;;;;;;20.52;13.18;;;;;;;5.76;87.12;103030.69;5051862;28;20049;-49
2022/03/21 08:17:16;;;;;;;22.85;14.50;;;;;;;5.79;87.36;103029.50;5034078;28;20045;-48
2022/03/21 08:19:44;;;;;;;27.30;14.45;;;;;;;5.83;87.01;103037.06;5037815;28;20128;-48
2022/03/21 08:22:12;;;;;;;20.25;14.20;;;;;;;5.86;86.40;103031.28;5031819;28;20056;-47
2022/03/21 08:24:39;;;;;;;26.08;14.80;;;;;;;5.91;85.91;103036.16;5034419;28;20048;-50
2022/03/21 08:27:07;;;;;;;27.35;14.32;;;;;;;5.93;85.60;103032.22;5051537;28;20052;-52
2022/03/21 08:29:35;;;;;;;22.58;13.65;;;;;;;5.95;85.20;103029.38;5040421;28;20115;-46
2022/03/21 08:32:03;;;;;;;19.38;12.55;;;;;;;5.97;85.38;103032.75;5051125;28;20037;-51
2022/03/21 08:34:30;;;;;;;20.95;13.55;;;;;;;6.02;85.02;103032.22;5048525;28;20041;-51
2022/03/21 08:36:58;;;;;;;24.63;14.30;;;;;;;6.05;84.90;103029.97;5052075;28;20557;-48
2022/03/21 08:39:26;;;;;;;25.30;14.57;;;;;;;6.14;84.87;103033.44;5051429;28;20039;-50
2022/03/21 08:41:54;;;;;;;23.48;14.40;;;;;;;6.17;83.98;103038.50;5053138;28;20104;-49
2022/03/21 08:44:22;;;;;;;28.27;14.63;;;;;;;6.22;84.25;103036.06;5053124;28;20037;-51
2022/03/21 08:46:49;;;;;;;23.23;13.55;;;;;;;6.28;84.04;103029.94;5052933;28;20483;-51
2022/03/21 08:49:26;;;;;;;23.45;13.07;;;;;;;6.35;84.09;103030.88;5035591;28;20041;-49
2022/03/21 08:51:59;;;;;;;24.27;13.55;;;;;;;6.46;83.80;103026.00;5032903;28;20045;-49
2022/03/21 08:54:27;;;;;;;20.40;11.80;;;;;;;6.55;82.08;103031.16;5033179;28;20076;-50
2022/03/21 08:56:55;;;;;;;22.00;12.98;;;;;;;6.60;81.51;103027.88;5032998;28;20165;-50
2022/03/21 08:59:24;;;;;;;20.23;11.98;;;;;;;6.60;80.90;103031.44;5032781;28;20042;-51
2022/03/21 09:01:52;;;;;;;22.55;13.10;;;;;;;6.62;79.97;103031.25;5031609;28;20046;-49
2022/03/21 09:04:20;;;;;;;20.65;13.05;;;;;;;6.63;80.24;103029.38;5032845;28;20033;-49
2022/03/21 09:06:48;;;;;;;21.88;12.88;;;;;;;6.67;79.59;103031.53;5032380;28;20095;-53
2022/03/21 09:09:18;;;;;;;19.38;11.85;;;;;;;6.69;79.67;103026.75;5036961;28;20530;-53
2022/03/21 09:11:46;;;;;;;18.90;11.63;;;;;;;6.74;79.03;103029.75;5037930;28;20058;-53
2022/03/21 09:14:14;;;;;;;18.63;10.77;;;;;;;6.77;79.11;103031.22;5036888;28;20491;-53
2022/03/21 09:16:42;;;;;;;28.52;12.00;;;;;;;6.81;79.36;103030.69;5036050;28;20038;-50
2022/03/21 09:19:11;;;;;;;20.50;12.00;;;;;;;6.86;78.95;103032.81;5037299;28;20133;-52
2022/03/21 09:21:39;;;;;;;20.40;11.98;;;;;;;7.00;79.73;103033.84;5035249;28;20072;-51
2022/03/21 09:24:07;;;;;;;22.88;12.55;;;;;;;7.10;79.16;103034.38;5037297;28;20034;-51
2022/03/21 09:26:34;;;;;;;21.30;12.70;;;;;;;7.17;78.33;103024.44;5036249;28;20507;-49
2022/03/21 09:29:05;;;;;;;19.23;12.77;;;;;;;7.20;78.27;103024.06;5034943;28;20050;-51
2022/03/21 09:31:33;;;;;;;24.05;13.07;;;;;;;7.32;78.71;103024.41;5018906;28;20037;-53
2022/03/21 09:34:11;;;;;;;24.52;12.65;;;;;;;7.37;77.92;103019.22;5036124;28;20487;-49
2022/03/21 09:36:40;;;;;;;24.60;14.18;;;;;;;7.40;77.08;103024.25;5036220;28;20038;-48
2022/03/21 09:39:08;;;;;;;24.80;12.60;;;;;;;7.42;77.18;103018.66;5034954;28;20044;-50
2022/03/21 09:41:36;;;;;;;28.77;14.32;;;;;;;7.49;77.72;103016.03;5036083;28;20061;-51
2022/03/21 09:44:09;;;;;;;24.30;14.48;;;;;;;7.59;77.10;103017.38;5045537;28;20505;-50
2022/03/21 09:46:42;;;;;;;18.90;11.95;;;;;;;7.74;76.30;103006.44;5054905;28;20098;-50
2022/03/21 09:49:11;;;;;;;21.17;12.50;;;;;;;7.78;76.08;103006.91;5054374;28;20048;-51
2022/03/21 09:51:39;;;;;;;22.42;14.52;;;;;;;7.90;75.93;103000.72;5055654;28;20037;-49
2022/03/21 09:54:09;;;;;;;24.67;13.60;;;;;;;8.09;76.14;103007.34;5055600;28;20041;-48
2022/03/21 09:56:37;;;;;;;23.95;12.82;;;;;;;8.15;74.98;103010.31;5054364;28;20049;-49
2022/03/21 09:59:05;;;;;;;27.70;15.82;;;;;;;8.20;74.77;103007.84;5054528;28;20044;-50
2022/03/21 10:01:35;;;;;;;23.92;12.98;;;;;;;8.20;74.42;103002.41;5052316;28;20037;-51
2022/03/21 10:04:03;;;;;;;22.98;14.15;;;;;;;8.16;74.79;103006.59;5054417;28;20070;-45
2022/03/21 10:06:34;;;;;;;25.08;15.43;;;;;;;8.21;74.82;102998.66;5055335;28;20488;-48
2022/03/21 10:09:05;;;;;;;28.88;15.65;;;;;;;8.27;75.05;103003.28;5055348;28;20047;-51
2022/03/21 10:11:34;;;;;;;25.13;12.85;;;;;;;8.38;76.12;102999.19;5052246;28;20120;-50
2022/03/21 10:14:20;;;;;;;22.83;13.85;;;;;;;8.44;74.45;102988.41;5043340;28;20404;-49
2022/03/21 10:17:11;;;;;;;22.60;15.20;;;;;;;8.46;73.76;102990.91;5035324;28;20109;-52
2022/03/21 10:19:51;;;;;;;25.60;16.90;;;;;;;8.56;74.11;102985.94;5035087;28;20045;-48
2022/03/21 10:22:20;;;;;;;27.88;16.40;;;;;;;8.71;74.40;102983.13;5053715;28;20041;-45
2022/03/21 10:24:49;;;;;;;29.30;16.73;;;;;;;8.87;72.94;102987.34;5053752;28;20052;-53
2022/03/21 10:27:37;;;;;;;27.42;16.45;;;;;;;8.96;72.65;102986.13;5054070;28;20037;-49
2022/03/21 10:30:10;;;;;;;24.65;14.80;;;;;;;9.00;71.47;102986.56;5053881;28;20045;-52
2022/03/21 10:32:43;;;;;;;26.40;15.82;;;;;;;9.01;71.39;102985.50;5052963;28;20041;-49
2022/03/21 10:35:31;;;;;;;23.50;14.23;;;;;;;8.99;71.94;102985.72;5050790;28;20044;-52
2022/03/21 10:38:03;;;;;;;26.40;15.25;;;;;;;8.99;71.46;102984.88;5036003;28;20128;-45
2022/03/21 10:40:34;;;;;;;26.02;15.75;;;;;;;8.98;71.17;102983.22;5038572;28;20044;-53
2022/03/21 10:43:07;;;;;;;28.70;17.00;;;;;;;9.02;71.83;102979.03;5041684;28;20037;-50
2022/03/21 10:45:45;;;;;;;29.40;16.52;;;;;;;9.14;70.82;102977.41;5052847;28;20128;-48
2022/03/21 10:48:19;;;;;;;25.75;16.30;;;;;;;9.28;70.30;102978.25;5051742;28;20137;-51
2022/03/21 10:50:52;;;;;;;29.00;14.70;;;;;;;9.29;70.37;102974.50;5036277;28;20049;-49
2022/03/21 10:53:38;;;;;;;32.95;17.73;;;;;;;9.29;70.47;102979.94;5054270;28;20116;-47
2022/03/21 10:56:10;;;;;;;;;;;;;;;9.35;69.96;102974.50;5054845;28;20059;-45
2022/03/21 10:58:57;;;;;;;28.38;16.80;;;;;;;9.45;69.59;102973.25;5050672;28;20289;-45
2022/03/21 11:01:29;;;;;;;31.80;18.17;;;;;;;9.68;68.30;102964.69;5034753;28;20052;-46
2022/03/21 11:04:03;;;;;;;30.80;19.08;;;;;;;9.79;67.90;102970.34;5034580;28;20132;-47
2022/03/21 11:06:32;;;;;;;30.88;18.08;;;;;;;9.80;67.46;102963.03;5034382;28;20136;-49
2022/03/21 11:09:01;;;;;;;32.35;17.67;;;;;;;9.84;66.74;102963.44;5034933;28;20045;-47
2022/03/21 11:11:29;;;;;;;31.50;18.17;;;;;;;9.91;66.55;102967.84;5033203;28;20045;-48
2022/03/21 11:13:57;;;;;;;32.65;18.25;;;;;;;9.98;66.64;102960.50;5051703;28;20047;-42
2022/03/21 11:16:25;;;;;;;38.47;23.20;;;;;;;10.03;66.96;102966.16;5052780;28;20557;-44
2022/03/21 11:18:54;;;;;;;32.33;18.45;;;;;;;10.16;66.52;102959.84;5049619;28;20086;-43
2022/03/21 11:21:22;;;;;;;30.23;19.17;;;;;;;10.17;66.33;102966.97;5041582;28;20033;-46
2022/03/21 11:23:51;;;;;;;41.65;21.05;;;;;;;10.13;66.33;102963.00;5053776;28;20095;-46
2022/03/21 11:26:30;;;;;;;28.30;17.67;;;;;;;10.08;66.66;102962.78;5052531;28;20045;-47
2022/03/21 11:29:23;;;;;;;32.42;18.80;;;;;;;10.06;68.02;102961.34;5037344;28;20037;-50
2022/03/21 11:32:11;;;;;;;39.55;20.60;;;;;;;10.10;71.65;102957.97;5050572;28;20147;-45
2022/03/21 11:34:42;;;;;;;40.63;18.10;;;;;;;10.08;69.65;102957.34;5052967;28;20045;-45
2022/03/21 11:37:25;;;;;;;30.65;18.48;;;;;;;10.16;67.79;102959.84;5051947;28;20098;-44
2022/03/21 11:40:28;;;;;;;36.00;19.98;;;;;;;10.18;68.14;102946.00;5052631;28;20403;-48
2022/03/21 11:43:21;;;;;;;29.70;17.75;;;;;;;10.17;68.23;102947.03;5037873;28;20049;-47
2022/03/21 11:45:54;;;;;;;26.40;16.58;;;;;;;10.22;68.54;102953.56;5053729;28;20033;-48
2022/03/21 11:48:22;;;;;;;27.75;18.35;;;;;;;10.40;68.29;102949.34;5053685;28;20045;-44